Thayer, Illinois
Current Conditions -  °F | °C
As of 3:52 AM on Thursday 29 Jan 2015 (Local Time) from KSPI Reporting Station
Clear Clear  
Wind Chill: 40°   Ceiling: Unl
Heat Index: 46°   Visibility: 10mi
Dew Point: 37°   Wind: 15mph
Humidity: 71%   Direction: 240°WSW
Pressure: 29.73"   Gusts: 21mph
Location:  39.54°N, 89.76°W
Report Text: KSPI 290952Z AUTO 24013G18KT 10SM CLR 08/03 A2973 RMK AO2 SLP071 T00780028
Loading
Personal Weather Stations






























Interactive Weather Map New forecast layout! Learn more

10-Day Weather Forecast

Advertisements
Track Severe Weather on mobile